Denali National Park, AK

5:54 AM AKDT on September 30, 2014 (GMT -0800)
RAWS WONDER LAKE AK US | Change Station
CLOSE
Current Station
Personal Weather Station
Location: Denali National Park, AK
Elevation: 2049 ft
Nearby Weather Stations

Elev 2049 ft 63.49 °N, 150.87 °W | Updated 27 minutes ago

Snow
Snow
29 °F
Feels Like 16 °F
N
20
Wind Variable Wind from WSW
Gusts 29.0 mph

Today
High -- | Low -- °F
--% Chance of Precip.
Yesterday
High -- | Low -- °F
Precip. -- in
8:09 AM 7:35 PM
Waxing Crescent, 37% visible
Pressure 30.13 in
Visibility 10.0 miles
Clouds
Windchill 16 °F
Dew Point 26 °F
Humidity 87%
Rainfall 0.17 in
Snow Depth 0 in , 29 in , 1 in
UV Not available.
Pollen Not available.
Air Quality Not available.
Flu Activity Not available.
METAR PAMH 301336Z AUTO 19005KT 10SM 01/M03 A3013 RMK AO1

More Conditions Fewer Conditions

Pressure 30.13 in
Visibility 10.0 miles
Clouds
Windchill 16 °F
Dew Point 26 °F
Humidity 87%
Rainfall 0.17 in
Snow Depth 0 in , 29 in , 1 in
UV Not available.
Pollen Not available.
Air Quality Not available.
Flu Activity Not available.
METAR PAMH 301336Z AUTO 19005KT 10SM 01/M03 A3013 RMK AO1

More Conditions Fewer Conditions

10-Day Weather Forecast

Almanac

Astronomy

Sep. 30, 2014 Rise Set
Actual Time 8:09 AM AKDT 7:35 PM AKDT
Civil Twilight 7:23 AM AKDT 8:22 PM AKDT
Nautical Twilight 6:27 AM AKDT 9:17 PM AKDT
Astronomical Twilight 5:27 AM AKDT 10:16 PM AKDT
Moon 4:05 PM AKDT 10:38 PM AKDT
Length of Visible Light 12h 58m
Length of Day
11h 25m
Tomorrow will be 6m 17s shorter.
Waxing Crescent, 37% of the Moon is Illuminated
Today
Waxing Crescent
Oct 1
First Quarter
Oct 8
Full
Oct 15
Last Quarter
Oct 23
New

Today's Extremes

State Highs State Lows

Community

WunderPhotos

Upload Photos

1,757,636 photos uploaded!

Nearby

Snow Depth

Station Depth Elevation
Granite Creek 0 in 1240 ft
Grandview 29 in 1100 ft
Eagle Summit 1 in 3650 ft
Cooper Lake 1 in 1200 ft
Upper Tsaina River 0 in 1750 ft

Earthquake Activity

City Distance Mag. Time & Date
No recent earthquake activity has been reported nearby.
Minimum magnitude displayed is 2.5.

Coastal Water Temperatures

Place Temperature
No Stations Reporting

Nearby Weather Stations